Time;durP1;ratioP1;P1;durP2;ratioP2;P2;SDS_P1;SDS_P2;PMS_P1;PMS_P2;Temp;Humidity;BMP_temperature;BMP_pressure;BME280_temperature;BME280_humidity;BME280_pressure;Samples;Min_cycle;Max_cycle;Signal;HPM_P1;HPM_P2
2022/09/10 00:08:15;;;;;;;10.63;9.77;;;17.60;99.90;;;;;;10171000;29;20217;-81
2022/09/10 00:13:20;;;;;;;9.77;9.37;;;17.50;99.90;;;;;;10299953;28;20696;-80
2022/09/10 00:18:23;;;;;;;10.33;9.40;;;17.40;99.90;;;;;;10412644;22;20573;-79
2022/09/10 00:23:38;;;;;;;9.53;9.13;;;17.40;99.90;;;;;;10417763;28;20190;-82
2022/09/10 00:28:47;;;;;;;8.80;8.30;;;17.30;99.90;;;;;;10404217;28;20248;-80
2022/09/10 00:33:49;;;;;;;8.20;7.77;;;17.20;99.90;;;;;;10399559;28;20234;-81
2022/09/10 00:38:58;;;;;;;6.97;6.70;;;17.20;99.90;;;;;;10422527;28;20241;-80
2022/09/10 00:44:06;;;;;;;6.63;6.27;;;17.10;99.90;;;;;;10394313;28;20190;-80
2022/09/10 00:49:14;;;;;;;6.03;5.80;;;17.10;99.90;;;;;;10407809;28;20744;-80
2022/09/10 00:54:20;;;;;;;5.50;5.20;;;17.10;99.90;;;;;;10406105;28;20560;-80
2022/09/10 00:59:26;;;;;;;5.07;4.80;;;17.20;99.90;;;;;;10406479;28;20222;-82
2022/09/10 01:04:28;;;;;;;5.53;5.23;;;17.20;99.90;;;;;;10396084;28;20197;-81
2022/09/10 01:09:31;;;;;;;5.20;5.00;;;17.20;99.90;;;;;;10409970;28;20222;-81
2022/09/10 01:14:52;;;;;;;4.73;4.60;;;17.30;99.90;;;;;;10404029;28;20221;-79
2022/09/10 01:20:21;;;;;;;4.70;4.50;;;17.40;99.90;;;;;;10406800;28;20208;-81
2022/09/10 01:25:37;;;;;;;4.93;4.63;;;17.40;99.90;;;;;;10407225;28;20226;-81
2022/09/10 01:30:44;;;;;;;4.30;4.10;;;17.50;99.90;;;;;;10390951;28;20252;-81
2022/09/10 01:35:51;;;;;;;4.10;3.90;;;17.60;99.90;;;;;;10410394;28;20545;-80
2022/09/10 01:40:55;;;;;;;4.37;4.17;;;17.60;99.90;;;;;;10422420;28;20577;-80
2022/09/10 01:46:18;;;;;;;4.93;4.60;;;17.60;99.90;;;;;;10400295;28;20226;-80
2022/09/10 01:51:44;;;;;;;4.33;4.13;;;17.60;99.90;;;;;;10393248;28;20218;-81
2022/09/10 01:56:59;;;;;;;4.37;4.23;;;17.60;99.90;;;;;;10417184;28;20230;-81
2022/09/10 02:02:09;;;;;;;4.13;3.93;;;17.60;99.90;;;;;;10415305;28;20201;-82
2022/09/10 02:07:13;;;;;;;4.30;4.10;;;17.60;99.90;;;;;;10408152;28;20225;-81
2022/09/10 02:12:19;;;;;;;4.30;4.00;;;17.50;99.90;;;;;;10420808;28;20218;-81
2022/09/10 02:17:41;;;;;;;6.30;5.70;;;17.40;99.90;;;;;;10419657;28;20237;-81
2022/09/10 02:22:48;;;;;;;9.23;8.63;;;17.20;99.90;;;;;;10426580;28;20221;-81
2022/09/10 02:27:51;;;;;;;10.80;10.40;;;17.10;99.90;;;;;;10407172;28;20298;-80
2022/09/10 02:32:54;;;;;;;13.70;12.90;;;17.00;99.90;;;;;;10412987;28;20224;-81
2022/09/10 02:37:57;;;;;;;13.40;12.60;;;16.90;99.90;;;;;;10416309;28;20328;-80
2022/09/10 02:42:59;;;;;;;13.30;12.70;;;16.80;99.90;;;;;;10419291;28;20733;-81
2022/09/10 02:48:04;;;;;;;12.93;12.23;;;16.80;99.90;;;;;;10427031;28;20227;-81
2022/09/10 02:53:08;;;;;;;13.40;12.50;;;16.70;99.90;;;;;;10435596;28;20291;-81
2022/09/10 02:58:12;;;;;;;13.67;12.43;;;16.70;99.90;;;;;;10410211;28;20227;-81
2022/09/10 03:03:16;;;;;;;13.47;12.67;;;16.70;99.90;;;;;;10408556;28;20195;-80
2022/09/10 03:08:18;;;;;;;12.07;11.47;;;16.60;99.90;;;;;;10441321;22;20298;-84
2022/09/10 03:13:23;;;;;;;12.10;11.50;;;16.60;99.90;;;;;;10403790;28;20585;-81
2022/09/10 03:18:27;;;;;;;13.47;12.60;;;16.60;99.90;;;;;;10439092;28;20766;-82
2022/09/10 03:23:29;;;;;;;12.53;11.47;;;16.60;99.90;;;;;;10426448;28;20533;-82
2022/09/10 03:28:31;;;;;;;12.83;12.20;;;16.60;99.90;;;;;;10409832;28;20251;-81
2022/09/10 03:33:37;;;;;;;12.50;11.90;;;16.60;99.90;;;;;;10411885;28;20237;-81
2022/09/10 03:38:40;;;;;;;11.70;11.10;;;16.60;99.90;;;;;;10422123;28;20574;-81
2022/09/10 03:43:42;;;;;;;11.00;10.50;;;16.50;99.90;;;;;;10403494;28;20645;-82
2022/09/10 03:48:47;;;;;;;11.83;11.17;;;16.50;99.90;;;;;;10412720;28;20281;-82
2022/09/10 03:53:49;;;;;;;10.63;10.13;;;16.50;99.90;;;;;;10406046;28;20218;-81
2022/09/10 03:58:54;;;;;;;10.93;10.33;;;16.50;99.90;;;;;;10393355;28;20635;-82
2022/09/10 04:03:57;;;;;;;11.80;11.10;;;16.50;99.90;;;;;;10416561;28;20206;-83
2022/09/10 04:09:02;;;;;;;12.70;11.73;;;16.50;99.90;;;;;;10443124;28;20237;-82
2022/09/10 04:14:04;;;;;;;11.07;10.47;;;16.40;99.90;;;;;;10414334;28;20221;-81
2022/09/10 04:19:08;;;;;;;11.30;10.80;;;16.50;99.90;;;;;;10393343;28;20215;-81
2022/09/10 04:24:12;;;;;;;9.83;9.33;;;16.50;99.90;;;;;;10390158;28;20190;-81
2022/09/10 04:29:15;;;;;;;10.40;9.90;;;16.50;99.90;;;;;;10409956;28;20217;-81
2022/09/10 04:34:19;;;;;;;9.50;9.00;;;16.50;99.90;;;;;;10408022;28;20221;-81
2022/09/10 04:39:22;;;;;;;8.73;8.23;;;16.60;99.90;;;;;;10402349;28;20222;-82
2022/09/10 04:44:25;;;;;;;9.33;8.80;;;16.60;99.90;;;;;;10401703;28;20203;-81
2022/09/10 04:49:28;;;;;;;7.53;7.20;;;16.70;99.90;;;;;;10382193;28;20221;-81
2022/09/10 04:54:32;;;;;;;7.87;7.57;;;16.70;99.90;;;;;;10402952;28;20219;-81
2022/09/10 04:59:35;;;;;;;6.80;6.60;;;16.80;99.90;;;;;;10384983;28;20598;-81
2022/09/10 05:04:39;;;;;;;7.20;7.00;;;16.90;99.90;;;;;;10397357;28;20254;-81
2022/09/10 05:09:41;;;;;;;7.60;7.20;;;17.00;99.90;;;;;;10380068;28;20233;-81
2022/09/10 05:14:43;;;;;;;7.83;7.37;;;17.10;99.90;;;;;;10391665;28;20272;-81
2022/09/10 05:19:47;;;;;;;6.30;5.80;;;17.10;99.90;;;;;;10375243;28;20225;-81
2022/09/10 05:24:49;;;;;;;4.20;4.00;;;17.20;99.90;;;;;;10372526;28;20191;-81
2022/09/10 05:29:51;;;;;;;4.93;4.83;;;17.20;99.90;;;;;;10402571;28;20226;-81
2022/09/10 05:34:55;;;;;;;6.27;5.70;;;17.20;99.90;;;;;;10393674;28;20223;-82
2022/09/10 05:39:58;;;;;;;4.20;4.00;;;17.30;99.90;;;;;;10392574;28;20219;-81
2022/09/10 05:45:02;;;;;;;5.67;5.47;;;17.30;99.90;;;;;;10395741;28;20186;-82
2022/09/10 05:50:07;;;;;;;6.43;5.03;;;17.40;99.90;;;;;;10395221;28;20205;-82
2022/09/10 05:55:11;;;;;;;3.40;3.10;;;17.40;99.90;;;;;;10358606;28;20226;-81
2022/09/10 06:00:14;;;;;;;4.93;4.73;;;17.50;99.90;;;;;;10399602;28;20357;-81
2022/09/10 06:05:18;;;;;;;5.20;4.90;;;17.50;99.90;;;;;;10410026;28;20198;-81
2022/09/10 06:10:20;;;;;;;6.73;4.53;;;17.50;99.90;;;;;;10393006;28;20275;-81
2022/09/10 06:15:26;;;;;;;4.80;4.47;;;17.60;99.90;;;;;;10370845;28;20222;-81
2022/09/10 06:20:30;;;;;;;4.17;4.07;;;17.60;99.90;;;;;;10388215;28;20206;-80
2022/09/10 06:25:33;;;;;;;3.17;2.97;;;17.60;99.90;;;;;;10394404;28;20661;-81
2022/09/10 06:30:35;;;;;;;5.13;4.93;;;17.70;99.90;;;;;;10400415;28;20205;-80
2022/09/10 06:35:39;;;;;;;4.50;4.20;;;17.70;99.90;;;;;;10415440;28;20218;-81
2022/09/10 06:40:53;;;;;;;4.50;4.30;;;17.70;99.90;;;;;;10416078;28;20201;-82
2022/09/10 06:45:56;;;;;;;4.17;3.97;;;17.80;99.90;;;;;;10403264;28;20231;-81
2022/09/10 06:51:18;;;;;;;3.10;3.00;;;17.90;99.90;;;;;;10392230;28;20202;-82
2022/09/10 06:56:21;;;;;;;2.50;2.40;;;18.00;99.90;;;;;;10398951;28;20226;-81
2022/09/10 07:01:25;;;;;;;3.70;3.50;;;18.10;99.90;;;;;;10378265;28;20202;-81
2022/09/10 07:06:37;;;;;;;3.53;3.23;;;18.20;99.90;;;;;;10394338;28;20249;-80
2022/09/10 07:11:44;;;;;;;3.87;3.50;;;18.30;99.90;;;;;;10386107;28;20579;-80
2022/09/10 07:16:50;;;;;;;3.27;3.07;;;18.40;99.90;;;;;;10372877;28;20659;-81
2022/09/10 07:21:54;;;;;;;3.17;2.97;;;18.50;99.90;;;;;;10396931;28;20195;-80
2022/09/10 07:26:56;;;;;;;3.00;2.80;;;18.70;99.90;;;;;;10410479;28;20265;-81
2022/09/10 07:31:59;;;;;;;3.50;3.20;;;18.80;99.90;;;;;;10393623;28;20220;-81
2022/09/10 07:37:04;;;;;;;3.30;3.10;;;19.00;99.90;;;;;;10398603;28;20779;-80
2022/09/10 07:42:08;;;;;;;2.03;1.93;;;19.00;99.90;;;;;;10396026;28;20202;-81
2022/09/10 07:47:15;;;;;;;2.83;2.60;;;19.20;99.90;;;;;;10390862;28;20242;-80
2022/09/10 07:52:20;;;;;;;2.63;2.13;;;19.30;99.90;;;;;;10412419;28;20218;-81
2022/09/10 07:57:30;;;;;;;2.67;2.43;;;19.40;99.90;;;;;;10417084;28;20218;-81
2022/09/10 08:02:33;;;;;;;3.00;2.90;;;19.50;99.90;;;;;;10413538;28;20202;-80
2022/09/10 08:07:40;;;;;;;2.87;2.70;;;19.60;99.90;;;;;;10407316;28;20232;-80
2022/09/10 08:12:43;;;;;;;2.20;2.10;;;19.70;99.90;;;;;;10408572;28;20222;-80
2022/09/10 08:17:46;;;;;;;2.40;2.30;;;19.80;99.90;;;;;;10419649;28;20249;-80
2022/09/10 08:22:50;;;;;;;2.80;2.60;;;19.80;99.90;;;;;;10391925;28;20297;-80
2022/09/10 08:27:53;;;;;;;2.87;2.70;;;19.90;99.90;;;;;;10400082;28;20222;-80
2022/09/10 08:32:55;;;;;;;3.07;2.87;;;20.00;99.90;;;;;;10400654;28;20242;-80
2022/09/10 08:37:59;;;;;;;2.57;2.47;;;20.10;99.90;;;;;;10379349;28;20313;-80
2022/09/10 08:43:02;;;;;;;2.70;2.50;;;20.20;99.90;;;;;;10381157;28;20202;-80
2022/09/10 08:48:15;;;;;;;2.60;2.50;;;20.40;99.90;;;;;;10377718;28;20218;-81
2022/09/10 08:53:25;;;;;;;2.43;2.33;;;20.50;99.90;;;;;;10389065;28;20549;-80
2022/09/10 08:58:39;;;;;;;2.70;2.60;;;20.60;99.90;;;;;;10378305;28;20218;-80
2022/09/10 09:03:44;;;;;;;2.87;2.67;;;20.70;99.90;;;;;;10370217;28;20214;-79
2022/09/10 09:08:50;;;;;;;2.70;2.50;;;20.70;99.90;;;;;;10378488;28;20240;-80
2022/09/10 09:14:16;;;;;;;2.87;2.33;;;20.90;99.90;;;;;;10338300;28;20217;-79
2022/09/10 09:19:28;;;;;;;3.03;2.80;;;21.20;99.90;;;;;;10338012;28;20218;-80
2022/09/10 09:24:44;;;;;;;2.77;2.60;;;21.30;99.90;;;;;;10374289;28;20201;-80
2022/09/10 09:29:54;;;;;;;4.17;2.83;;;21.20;99.90;;;;;;10375826;28;20226;-80
2022/09/10 09:35:15;;;;;;;5.87;2.93;;;21.30;99.90;;;;;;10343762;28;20215;-80
2022/09/10 09:40:27;;;;;;;3.13;2.93;;;21.30;99.00;;;;;;10358852;28;20218;-80
2022/09/10 09:45:36;;;;;;;2.70;2.50;;;21.40;99.90;;;;;;10384819;28;20235;-80
2022/09/10 09:50:41;;;;;;;3.20;2.63;;;21.50;99.90;;;;;;10374711;28;20282;-79
2022/09/10 09:55:47;;;;;;;2.03;1.40;;;21.50;99.30;;;;;;10373614;28;20230;-82
2022/09/10 10:00:53;;;;;;;3.10;2.90;;;21.40;98.60;;;;;;10347382;28;20210;-80
2022/09/10 10:06:01;;;;;;;2.73;2.53;;;21.30;98.80;;;;;;10347260;28;20249;-79
2022/09/10 10:11:06;;;;;;;2.37;2.23;;;21.20;98.60;;;;;;10361725;28;20210;-80
2022/09/10 10:16:16;;;;;;;3.53;2.70;;;21.20;98.50;;;;;;10374250;28;20250;-80
2022/09/10 10:21:22;;;;;;;3.47;2.17;;;21.20;98.60;;;;;;10350048;28;20207;-80
2022/09/10 10:26:31;;;;;;;2.53;2.40;;;21.20;97.80;;;;;;10366151;28;20198;-80
2022/09/10 10:31:37;;;;;;;2.10;1.90;;;21.20;98.10;;;;;;10349048;28;20701;-80
2022/09/10 10:36:47;;;;;;;2.70;2.50;;;21.40;98.00;;;;;;10366310;28;20591;-80
2022/09/10 10:42:03;;;;;;;7.43;6.83;;;21.60;97.10;;;;;;10348039;28;20205;-80
2022/09/10 10:47:27;;;;;;;2.90;2.70;;;21.80;95.40;;;;;;10370124;28;20216;-80
2022/09/10 10:52:37;;;;;;;3.70;3.50;;;21.80;96.30;;;;;;10346229;28;20234;-80
2022/09/10 10:58:11;;;;;;;3.20;3.07;;;21.80;96.90;;;;;;10374975;28;20301;-80
2022/09/10 11:03:20;;;;;;;3.40;3.10;;;22.00;95.80;;;;;;10350294;28;20219;-80
2022/09/10 11:08:29;;;;;;;2.67;2.57;;;22.20;95.20;;;;;;10389562;28;20230;-79
2022/09/10 11:13:39;;;;;;;3.30;3.17;;;22.30;94.40;;;;;;10349595;28;20262;-80
2022/09/10 11:18:47;;;;;;;3.67;3.50;;;22.30;94.40;;;;;;10385663;28;20226;-80
2022/09/10 11:23:54;;;;;;;3.67;3.23;;;22.10;93.90;;;;;;10345768;28;20199;-80
2022/09/10 11:29:09;;;;;;;2.97;2.77;;;22.00;94.50;;;;;;10345447;28;20778;-80
2022/09/10 11:34:17;;;;;;;2.60;2.50;;;22.00;93.90;;;;;;10349963;28;20214;-80
2022/09/10 11:39:23;;;;;;;3.03;2.83;;;22.20;93.20;;;;;;10392564;28;20214;-81
2022/09/10 11:44:37;;;;;;;2.90;2.70;;;22.20;93.30;;;;;;10388722;28;20211;-79
2022/09/10 11:49:47;;;;;;;3.53;3.13;;;22.00;94.70;;;;;;10350492;28;20582;-79
2022/09/10 11:54:49;;;;;;;2.90;2.70;;;21.80;92.80;;;;;;10386110;28;20203;-81
2022/09/10 12:00:08;;;;;;;2.90;2.70;;;21.70;92.70;;;;;;10353768;28;20274;-80
2022/09/10 12:05:22;;;;;;;3.50;3.30;;;21.50;93.90;;;;;;10380374;28;20210;-80
2022/09/10 12:10:32;;;;;;;2.67;2.50;;;21.40;94.00;;;;;;10350938;28;20201;-81
2022/09/10 12:15:37;;;;;;;2.90;2.70;;;21.50;94.70;;;;;;10382856;28;20224;-80
2022/09/10 12:20:43;;;;;;;3.80;3.13;;;21.50;95.80;;;;;;10353624;28;20215;-80
2022/09/10 12:25:56;;;;;;;3.90;3.70;;;21.50;95.40;;;;;;10376938;28;20237;-80
2022/09/10 12:31:03;;;;;;;3.80;3.50;;;21.40;96.20;;;;;;10349184;28;20274;-80
2022/09/10 12:36:05;;;;;;;3.13;2.97;;;21.40;94.30;;;;;;10381038;28;20219;-81
2022/09/10 12:41:12;;;;;;;3.50;3.27;;;21.30;94.20;;;;;;10340032;28;20245;-80
2022/09/10 12:46:21;;;;;;;3.80;3.60;;;21.30;94.50;;;;;;10380858;28;20226;-80
2022/09/10 12:51:32;;;;;;;6.50;3.27;;;21.60;94.10;;;;;;10356363;28;20198;-80
2022/09/10 12:56:56;;;;;;;3.60;3.30;;;21.80;95.00;;;;;;10375056;28;20314;-80
2022/09/10 13:02:00;;;;;;;2.80;2.60;;;21.70;93.80;;;;;;10348209;28;20202;-81
2022/09/10 13:07:05;;;;;;;3.40;2.70;;;21.70;92.20;;;;;;10373512;28;20230;-80
2022/09/10 13:12:20;;;;;;;3.50;3.20;;;21.60;92.60;;;;;;10357935;28;20218;-80
2022/09/10 13:17:56;;;;;;;2.90;2.80;;;21.60;92.40;;;;;;10356401;28;20246;-80
2022/09/10 13:23:01;;;;;;;3.70;3.27;;;21.70;93.20;;;;;;10362416;28;20613;-80
2022/09/10 13:28:30;;;;;;;3.60;3.40;;;21.90;94.40;;;;;;10368221;28;20575;-80
2022/09/10 13:33:47;;;;;;;3.23;3.07;;;22.00;92.00;;;;;;10367364;28;20310;-81
2022/09/10 13:39:14;;;;;;;2.70;1.97;;;22.10;91.60;;;;;;10363858;28;20211;-80
2022/09/10 13:44:34;;;;;;;2.53;2.37;;;22.00;91.20;;;;;;10372224;28;20656;-80
2022/09/10 13:49:46;;;;;;;3.30;2.97;;;22.00;91.10;;;;;;10360167;28;20313;-81
2022/09/10 13:54:53;;;;;;;3.97;3.70;;;21.90;92.50;;;;;;10374418;28;20225;-81
2022/09/10 14:00:06;;;;;;;2.80;2.60;;;21.90;91.90;;;;;;10386148;28;20272;-80
2022/09/10 14:05:32;;;;;;;3.83;3.63;;;21.80;92.20;;;;;;10354500;28;20194;-81
2022/09/10 14:10:49;;;;;;;5.60;3.27;;;21.80;92.50;;;;;;10376290;28;20234;-79
2022/09/10 14:15:53;;;;;;;3.00;2.80;;;21.60;92.40;;;;;;10352547;28;20230;-80
2022/09/10 14:20:57;;;;;;;4.00;3.73;;;21.40;92.80;;;;;;10378916;28;20186;-81
2022/09/10 14:26:13;;;;;;;3.50;2.87;;;21.20;95.00;;;;;;10352494;28;20230;-80
2022/09/10 14:31:30;;;;;;;3.17;3.07;;;21.10;97.60;;;;;;10377777;28;20205;-80
2022/09/10 14:36:35;;;;;;;3.57;3.27;;;20.90;99.00;;;;;;10331490;28;20225;-80
2022/09/10 14:41:37;;;;;;;2.50;2.40;;;20.90;99.90;;;;;;10381134;28;20571;-80
2022/09/10 14:46:51;;;;;;;2.77;2.57;;;20.90;99.30;;;;;;10349379;28;20609;-80
2022/09/10 14:51:57;;;;;;;3.10;2.80;;;20.90;99.40;;;;;;10382071;28;20229;-80
2022/09/10 14:57:02;;;;;;;2.90;2.70;;;20.90;98.90;;;;;;10331466;28;21170;-80
2022/09/10 15:02:14;;;;;;;4.30;4.10;;;21.00;97.50;;;;;;10381925;28;20195;-80
2022/09/10 15:07:18;;;;;;;3.50;3.23;;;21.10;97.40;;;;;;10368109;23;20250;-78
2022/09/10 15:12:24;;;;;;;2.60;2.40;;;21.10;97.70;;;;;;10426267;28;20198;-79
2022/09/10 15:17:26;;;;;;;2.80;2.60;;;21.10;97.90;;;;;;10387769;28;20302;-79
2022/09/10 15:22:31;;;;;;;3.50;2.67;;;21.20;98.90;;;;;;10425458;28;20198;-79
2022/09/10 15:27:33;;;;;;;2.30;2.10;;;21.30;94.40;;;;;;10388872;28;20686;-79
2022/09/10 15:32:35;;;;;;;3.47;3.27;;;21.30;95.80;;;;;;10424719;28;20202;-78
2022/09/10 15:37:39;;;;;;;3.17;2.47;;;21.30;96.20;;;;;;10372898;28;20302;-78
2022/09/10 15:42:41;;;;;;;3.67;3.37;;;21.20;97.50;;;;;;10425607;28;20243;-78
2022/09/10 15:47:43;;;;;;;5.80;4.10;;;20.80;98.40;;;;;;10386236;28;20249;-77
2022/09/10 15:52:46;;;;;;;5.30;4.90;;;20.40;99.70;;;;;;10420849;28;20572;-78
2022/09/10 15:57:51;;;;;;;8.37;7.70;;;20.10;99.90;;;;;;10387785;28;20535;-79
2022/09/10 16:02:53;;;;;;;8.77;8.23;;;19.70;99.90;;;;;;10422678;28;20205;-79
2022/09/10 16:07:56;;;;;;;9.80;9.30;;;19.40;99.90;;;;;;10389410;28;20518;-79
2022/09/10 16:12:58;;;;;;;10.33;9.83;;;19.00;99.90;;;;;;10421475;28;20636;-79
2022/09/10 16:18:01;;;;;;;9.07;8.57;;;18.90;99.90;;;;;;10388925;28;20225;-79
2022/09/10 16:23:04;;;;;;;8.70;8.30;;;18.80;99.90;;;;;;10421710;28;20210;-79
2022/09/10 16:28:06;;;;;;;11.33;10.83;;;18.60;99.90;;;;;;10390746;28;20218;-78
2022/09/10 16:33:08;;;;;;;10.97;10.23;;;18.40;99.90;;;;;;10420032;28;20218;-78
2022/09/10 16:38:12;;;;;;;9.87;9.37;;;18.30;99.90;;;;;;10392027;28;20218;-79
2022/09/10 16:43:14;;;;;;;8.17;7.80;;;18.30;99.90;;;;;;10425342;28;20198;-80
2022/09/10 16:48:16;;;;;;;5.30;4.90;;;18.20;99.90;;;;;;10388813;28;20223;-80
2022/09/10 16:53:19;;;;;;;9.67;9.17;;;18.30;99.90;;;;;;10413740;28;20204;-80
2022/09/10 16:58:22;;;;;;;8.67;8.20;;;18.30;99.90;;;;;;10390985;28;20221;-80
2022/09/10 17:03:24;;;;;;;8.20;7.60;;;18.30;99.90;;;;;;10414984;28;20252;-80
2022/09/10 17:08:29;;;;;;;7.90;7.40;;;18.30;99.90;;;;;;10389907;28;20305;-80
2022/09/10 17:13:31;;;;;;;6.30;5.97;;;18.30;99.90;;;;;;10414292;28;20194;-80
2022/09/10 17:18:33;;;;;;;5.93;5.53;;;18.30;99.90;;;;;;10403752;28;20257;-79
2022/09/10 17:23:37;;;;;;;7.77;7.37;;;18.30;99.90;;;;;;10411854;28;20204;-80
2022/09/10 17:28:39;;;;;;;7.93;7.43;;;18.40;99.90;;;;;;10386185;28;20578;-80
2022/09/10 17:33:41;;;;;;;6.40;6.10;;;18.40;99.90;;;;;;10409848;28;20265;-80
2022/09/10 17:38:46;;;;;;;5.17;4.70;;;18.40;99.90;;;;;;10371262;28;20546;-80
2022/09/10 17:43:48;;;;;;;6.70;6.13;;;18.50;99.90;;;;;;10408482;28;20272;-79
2022/09/10 17:48:52;;;;;;;6.47;6.17;;;18.60;99.90;;;;;;10389369;28;20214;-80
2022/09/10 17:53:56;;;;;;;6.10;5.60;;;18.60;99.90;;;;;;10408800;28;20280;-78
2022/09/10 17:59:00;;;;;;;5.73;5.30;;;18.60;99.90;;;;;;10390647;28;20562;-78
2022/09/10 18:04:02;;;;;;;6.37;5.97;;;18.60;99.90;;;;;;10409733;28;20273;-80
2022/09/10 18:09:07;;;;;;;5.73;5.27;;;18.60;99.90;;;;;;10391075;28;20218;-80
2022/09/10 18:14:15;;;;;;;6.10;5.70;;;18.60;99.90;;;;;;10407568;28;20272;-80
2022/09/10 18:19:18;;;;;;;4.53;4.20;;;18.60;99.90;;;;;;10390353;28;20219;-80
2022/09/10 18:24:23;;;;;;;4.47;4.17;;;18.60;99.90;;;;;;10411522;28;20194;-80
2022/09/10 18:29:28;;;;;;;4.00;3.67;;;18.60;99.90;;;;;;10392086;28;20218;-79
2022/09/10 18:34:31;;;;;;;4.60;4.30;;;18.60;99.90;;;;;;10415870;28;20218;-80
2022/09/10 18:39:34;;;;;;;3.80;3.60;;;18.60;99.90;;;;;;10403470;28;20218;-80
2022/09/10 18:44:36;;;;;;;4.63;4.43;;;18.70;99.90;;;;;;10409044;28;20213;-80
2022/09/10 18:49:38;;;;;;;4.40;4.20;;;18.60;99.90;;;;;;10393956;28;20238;-80
2022/09/10 18:54:42;;;;;;;3.50;3.20;;;18.60;99.90;;;;;;10410595;28;20304;-79
2022/09/10 18:59:45;;;;;;;3.67;3.33;;;18.60;99.90;;;;;;10404685;28;20221;-79
2022/09/10 19:04:47;;;;;;;3.30;3.10;;;18.50;99.90;;;;;;10403527;28;20202;-80
2022/09/10 19:09:50;;;;;;;3.33;3.23;;;18.50;99.90;;;;;;10394020;28;20226;-80
2022/09/10 19:14:52;;;;;;;3.23;3.03;;;18.50;99.90;;;;;;10404152;28;20218;-80
2022/09/10 19:19:54;;;;;;;3.03;2.83;;;18.50;99.90;;;;;;10378561;28;20218;-80
2022/09/10 19:24:58;;;;;;;3.50;3.20;;;18.40;99.90;;;;;;10413956;28;20218;-79
2022/09/10 19:30:00;;;;;;;3.37;3.20;;;18.50;99.90;;;;;;10404153;28;20709;-80
2022/09/10 19:35:02;;;;;;;2.80;2.60;;;18.40;99.90;;;;;;10412635;28;20206;-80
2022/09/10 19:40:06;;;;;;;3.03;2.93;;;18.50;99.90;;;;;;10407025;28;20297;-80
2022/09/10 19:45:09;;;;;;;3.43;3.30;;;18.40;99.90;;;;;;10411021;28;20221;-80
2022/09/10 19:50:12;;;;;;;3.20;3.00;;;18.50;99.90;;;;;;10402004;28;20222;-80
2022/09/10 19:55:16;;;;;;;3.20;3.10;;;18.50;99.90;;;;;;10409159;28;20209;-80
2022/09/10 20:00:19;;;;;;;2.80;2.70;;;18.50;99.90;;;;;;10403352;28;20218;-80
2022/09/10 20:05:21;;;;;;;3.30;3.10;;;18.40;99.90;;;;;;10410855;28;20273;-80
2022/09/10 20:10:24;;;;;;;3.77;3.27;;;18.40;99.90;;;;;;10403604;28;20264;-80
2022/09/10 20:15:26;;;;;;;3.30;2.97;;;18.50;99.90;;;;;;10408061;28;20244;-80
2022/09/10 20:20:28;;;;;;;4.60;4.30;;;18.50;99.90;;;;;;10404001;28;20587;-79
2022/09/10 20:25:31;;;;;;;3.87;3.57;;;18.50;99.90;;;;;;10404717;28;20198;-79
2022/09/10 20:30:34;;;;;;;3.13;2.93;;;18.50;99.90;;;;;;10403918;28;20640;-80
2022/09/10 20:35:41;;;;;;;2.60;2.50;;;18.50;99.90;;;;;;10417773;28;20214;-80
2022/09/10 20:40:47;;;;;;;3.07;2.97;;;18.50;99.90;;;;;;10413607;28;20294;-79
2022/09/10 20:45:49;;;;;;;7.03;6.27;;;18.50;99.90;;;;;;10406248;28;20209;-79
2022/09/10 20:50:52;;;;;;;4.90;4.60;;;18.50;99.90;;;;;;10405093;28;20540;-79
2022/09/10 20:56:04;;;;;;;3.30;3.10;;;18.50;99.90;;;;;;10407083;28;20214;-79
2022/09/10 21:01:11;;;;;;;2.60;2.50;;;18.50;99.90;;;;;;10395411;28;20194;-80
2022/09/10 21:06:15;;;;;;;2.40;2.30;;;18.50;99.90;;;;;;10402002;28;20309;-80
2022/09/10 21:11:19;;;;;;;3.47;3.27;;;18.50;99.90;;;;;;10398826;28;20237;-80
2022/09/10 21:16:23;;;;;;;3.23;3.13;;;18.40;99.90;;;;;;10400221;28;20217;-80
2022/09/10 21:21:27;;;;;;;2.80;2.70;;;18.30;99.90;;;;;;10396788;28;20190;-79
2022/09/10 21:26:33;;;;;;;3.00;2.90;;;18.30;99.90;;;;;;10399840;28;20256;-80
2022/09/10 21:31:35;;;;;;;2.80;2.70;;;18.40;99.90;;;;;;10382795;28;20309;-80
2022/09/10 21:36:39;;;;;;;2.70;2.60;;;18.40;99.90;;;;;;10402640;28;20222;-80
2022/09/10 21:41:44;;;;;;;2.80;2.60;;;18.40;99.90;;;;;;10399645;28;20206;-80
2022/09/10 21:46:47;;;;;;;3.10;3.00;;;18.40;99.90;;;;;;10404429;28;20213;-80
2022/09/10 21:51:49;;;;;;;2.90;2.80;;;18.30;99.90;;;;;;10398694;28;20194;-80
2022/09/10 21:56:53;;;;;;;2.90;2.80;;;18.30;99.90;;;;;;10400171;28;20217;-80
2022/09/10 22:01:55;;;;;;;10.80;2.80;;;18.20;99.90;;;;;;10398594;28;20208;-80
2022/09/10 22:06:57;;;;;;;2.77;2.67;;;18.20;99.90;;;;;;10401200;28;20609;-80
2022/09/10 22:12:01;;;;;;;2.83;2.63;;;18.20;99.90;;;;;;10402948;28;20286;-80
2022/09/10 22:17:04;;;;;;;3.40;3.20;;;18.20;99.90;;;;;;10400395;28;20214;-80
2022/09/10 22:22:06;;;;;;;3.57;3.30;;;18.10;99.90;;;;;;10410189;28;20226;-80
2022/09/10 22:27:09;;;;;;;3.17;2.97;;;18.10;99.90;;;;;;10398640;28;20229;-80
2022/09/10 22:32:12;;;;;;;3.40;3.20;;;18.10;99.90;;;;;;10410795;28;20191;-79
2022/09/10 22:37:14;;;;;;;3.40;3.20;;;18.10;99.90;;;;;;10397333;28;20689;-79
2022/09/10 22:42:19;;;;;;;3.50;3.30;;;18.10;99.90;;;;;;10399956;28;20205;-79
2022/09/10 22:47:21;;;;;;;7.40;6.70;;;18.10;99.90;;;;;;10395778;28;20268;-80
2022/09/10 22:52:23;;;;;;;3.40;3.20;;;18.00;99.90;;;;;;10404870;28;20717;-80
2022/09/10 22:57:28;;;;;;;3.30;3.00;;;17.90;99.90;;;;;;10403654;28;20218;-80
2022/09/10 23:02:30;;;;;;;3.50;3.40;;;17.80;99.90;;;;;;10412609;28;20202;-80
2022/09/10 23:07:32;;;;;;;3.87;3.30;;;17.80;99.90;;;;;;10404030;28;20222;-79
2022/09/10 23:12:37;;;;;;;3.77;3.47;;;17.80;99.90;;;;;;10416870;28;20638;-80
2022/09/10 23:17:39;;;;;;;4.47;3.07;;;17.90;99.90;;;;;;10404322;28;20280;-80
2022/09/10 23:22:41;;;;;;;3.77;3.47;;;17.80;99.90;;;;;;10423941;28;20223;-80
2022/09/10 23:27:45;;;;;;;3.50;3.30;;;17.90;99.90;;;;;;10399818;28;20244;-79
2022/09/10 23:32:47;;;;;;;2.93;2.83;;;17.90;99.90;;;;;;10411205;28;20253;-79
2022/09/10 23:37:50;;;;;;;2.80;2.70;;;17.90;99.90;;;;;;10399907;28;20228;-80
2022/09/10 23:42:53;;;;;;;3.30;3.00;;;17.90;99.90;;;;;;10412979;28;20202;-80
2022/09/10 23:47:55;;;;;;;2.80;2.70;;;17.90;99.90;;;;;;10400011;28;20686;-79
2022/09/10 23:52:57;;;;;;;2.70;2.50;;;17.90;99.90;;;;;;10412285;28;20635;-80
2022/09/10 23:58:00;;;;;;;2.50;2.40;;;17.90;99.90;;;;;;10399945;28;20236;-80
